createdAt,value
2019-01-10T00:00:20.997Z,-0.54
2019-01-10T00:02:15.615Z,-0.52
2019-01-10T00:04:09.573Z,-0.55
2019-01-10T00:06:03.805Z,-0.57
2019-01-10T00:07:57.065Z,-0.59
2019-01-10T00:09:50.083Z,-0.60
2019-01-10T00:11:43.016Z,-0.59
2019-01-10T00:13:36.634Z,-0.56
2019-01-10T00:15:29.782Z,-0.56
2019-01-10T00:17:22.995Z,-0.56
2019-01-10T00:19:16.175Z,-0.54
2019-01-10T00:21:09.435Z,-0.56
2019-01-10T00:23:03.345Z,-0.57
2019-01-10T00:24:56.344Z,-0.58
2019-01-10T00:26:49.564Z,-0.55
2019-01-10T00:28:42.397Z,-0.52
2019-01-10T00:30:35.363Z,-0.50
2019-01-10T00:32:28.499Z,-0.48
2019-01-10T00:34:21.585Z,-0.46
2019-01-10T00:36:14.682Z,-0.47
2019-01-10T00:38:07.605Z,-0.46
2019-01-10T00:40:00.658Z,-0.46
2019-01-10T00:41:53.908Z,-0.46
2019-01-10T00:43:47.185Z,-0.46
2019-01-10T00:45:40.185Z,-0.45
2019-01-10T00:47:33.416Z,-0.44
2019-01-10T00:49:26.847Z,-0.45
2019-01-10T00:51:20.044Z,-0.48
2019-01-10T00:53:13.146Z,-0.53
2019-01-10T00:55:06.052Z,-0.52
2019-01-10T00:56:59.085Z,-0.49
2019-01-10T00:58:52.397Z,-0.50
2019-01-10T01:00:45.481Z,-0.49
2019-01-10T01:02:38.605Z,-0.46
2019-01-10T01:04:32.005Z,-0.44
2019-01-10T01:06:24.887Z,-0.43
2019-01-10T01:08:17.875Z,-0.45
2019-01-10T01:10:14.495Z,-0.43
2019-01-10T01:12:08.535Z,-0.42
2019-01-10T01:14:02.096Z,-0.41
2019-01-10T01:16:01.343Z,-0.42
2019-01-10T01:18:00.155Z,-0.43
2019-01-10T01:19:54.017Z,-0.43
2019-01-10T01:21:46.770Z,-0.44
2019-01-10T01:23:39.527Z,-0.45
2019-01-10T01:25:33.629Z,-0.47
2019-01-10T01:27:26.876Z,-0.44
2019-01-10T01:29:19.667Z,-0.43
2019-01-10T01:31:14.126Z,-0.43
2019-01-10T01:33:07.098Z,-0.43
2019-01-10T01:35:01.757Z,-0.42
2019-01-10T01:36:54.916Z,-0.37
2019-01-10T01:38:48.326Z,-0.35
2019-01-10T01:40:42.377Z,-0.37
2019-01-10T01:42:36.017Z,-0.37
2019-01-10T01:44:29.217Z,-0.39
2019-01-10T01:46:22.399Z,-0.38
2019-01-10T01:48:15.474Z,-0.38
2019-01-10T01:50:10.997Z,-0.42
2019-01-10T01:52:03.927Z,-0.44
2019-01-10T01:53:57.315Z,-0.44
2019-01-10T01:55:50.307Z,-0.45
2019-01-10T01:57:43.977Z,-0.45
2019-01-10T01:59:38.967Z,-0.45
2019-01-10T02:01:31.927Z,-0.47
2019-01-10T02:03:25.126Z,-0.50
2019-01-10T02:05:18.567Z,-0.52
2019-01-10T02:07:11.736Z,-0.53
2019-01-10T02:09:05.277Z,-0.52
2019-01-10T02:10:58.226Z,-0.48
2019-01-10T02:12:51.186Z,-0.48
2019-01-10T02:14:44.916Z,-0.47
2019-01-10T02:16:37.937Z,-0.49
2019-01-10T02:18:30.893Z,-0.51
2019-01-10T02:20:23.516Z,-0.52
2019-01-10T02:22:16.368Z,-0.54
2019-01-10T02:24:09.717Z,-0.52
2019-01-10T02:26:03.749Z,-0.53
2019-01-10T02:27:57.037Z,-0.54
2019-01-10T02:29:49.876Z,-0.55
2019-01-10T02:31:42.777Z,-0.56
2019-01-10T02:33:35.430Z,-0.55
2019-01-10T02:35:28.538Z,-0.58
2019-01-10T02:37:21.188Z,-0.63
2019-01-10T02:39:15.218Z,-0.66
2019-01-10T02:41:08.247Z,-0.70
2019-01-10T02:43:02.470Z,-0.73
2019-01-10T02:44:55.336Z,-0.75
2019-01-10T02:46:48.293Z,-0.75
2019-01-10T02:48:41.280Z,-0.75
2019-01-10T02:50:34.796Z,-0.73
2019-01-10T02:52:27.618Z,-0.75
2019-01-10T02:54:22.697Z,-0.75
2019-01-10T02:56:15.357Z,-0.74
2019-01-10T02:58:09.345Z,-0.76
2019-01-10T03:00:02.337Z,-0.73
2019-01-10T03:01:55.335Z,-0.71
2019-01-10T03:03:48.387Z,-0.68
2019-01-10T03:05:41.525Z,-0.66
2019-01-10T03:07:34.378Z,-0.66
2019-01-10T03:09:28.209Z,-0.68
2019-01-10T03:11:22.646Z,-0.72
2019-01-10T03:13:15.327Z,-0.74
2019-01-10T03:15:08.986Z,-0.73
2019-01-10T03:17:01.656Z,-0.71
2019-01-10T03:18:54.917Z,-0.69
2019-01-10T03:20:48.198Z,-0.73
2019-01-10T03:22:41.715Z,-0.76
2019-01-10T03:24:34.409Z,-0.78
2019-01-10T03:26:27.735Z,-0.77
2019-01-10T03:28:21.574Z,-0.79
2019-01-10T03:30:17.520Z,-0.79
2019-01-10T03:32:10.597Z,-0.80
2019-01-10T03:34:03.629Z,-0.78
2019-01-10T03:35:56.637Z,-0.76
2019-01-10T03:37:49.432Z,-0.76
2019-01-10T03:39:42.712Z,-0.75
2019-01-10T03:41:35.569Z,-0.73
2019-01-10T03:43:28.820Z,-0.69
2019-01-10T03:45:24.775Z,-0.65
2019-01-10T03:47:17.701Z,-0.65
2019-01-10T03:49:10.896Z,-0.66
2019-01-10T03:51:04.043Z,-0.67
2019-01-10T03:52:56.806Z,-0.64
2019-01-10T03:54:49.787Z,-0.62
2019-01-10T03:56:42.906Z,-0.60
2019-01-10T03:58:35.996Z,-0.58
2019-01-10T04:00:28.847Z,-0.55
2019-01-10T04:02:21.988Z,-0.56
2019-01-10T04:04:14.786Z,-0.56
2019-01-10T04:06:07.717Z,-0.54
2019-01-10T04:08:00.638Z,-0.54
2019-01-10T04:09:53.629Z,-0.51
2019-01-10T04:11:46.896Z,-0.52
2019-01-10T04:13:39.787Z,-0.52
2019-01-10T04:15:32.768Z,-0.51
2019-01-10T04:17:25.857Z,-0.53
2019-01-10T04:19:18.786Z,-0.52
2019-01-10T04:21:16.917Z,-0.55
2019-01-10T04:23:06.160Z,-0.56
2019-01-10T04:24:58.957Z,-0.53
2019-01-10T04:26:51.988Z,-0.56
2019-01-10T04:28:46.217Z,-0.58
2019-01-10T04:30:40.293Z,-0.59
2019-01-10T04:32:33.168Z,-0.59
2019-01-10T04:34:26.307Z,-0.58
2019-01-10T04:36:19.088Z,-0.55
2019-01-10T04:38:12.179Z,-0.55
2019-01-10T04:40:06.764Z,-0.57
2019-01-10T04:41:59.586Z,-0.60
2019-01-10T04:43:52.426Z,-0.60
2019-01-10T04:45:46.345Z,-0.59
2019-01-10T04:47:39.429Z,-0.58
2019-01-10T04:49:32.075Z,-0.59
2019-01-10T04:51:25.185Z,-0.59
2019-01-10T04:53:18.005Z,-0.61
2019-01-10T04:55:11.837Z,-0.64
2019-01-10T04:57:04.676Z,-0.64
2019-01-10T04:58:57.612Z,-0.63
2019-01-10T05:00:50.797Z,-0.63
2019-01-10T05:02:43.606Z,-0.64
2019-01-10T05:04:36.806Z,-0.64
2019-01-10T05:06:29.687Z,-0.63
2019-01-10T05:08:22.546Z,-0.62
2019-01-10T05:10:15.370Z,-0.60
2019-01-10T05:12:08.717Z,-0.58
2019-01-10T05:14:02.095Z,-0.60
2019-01-10T05:15:56.436Z,-0.59
2019-01-10T05:17:49.288Z,-0.61
2019-01-10T05:19:42.515Z,-0.63
2019-01-10T05:21:35.602Z,-0.62
2019-01-10T05:23:29.698Z,-0.63
2019-01-10T05:25:24.331Z,-0.65
2019-01-10T05:27:17.256Z,-0.70
2019-01-10T05:29:10.325Z,-0.71
2019-01-10T05:31:03.135Z,-0.73
2019-01-10T05:32:57.823Z,-0.73
2019-01-10T05:34:50.767Z,-0.81
2019-01-10T05:36:43.407Z,-0.82
2019-01-10T05:38:36.867Z,-0.88
2019-01-10T05:40:30.755Z,-0.90
2019-01-10T05:42:23.979Z,-0.94
2019-01-10T05:44:26.222Z,-0.95
2019-01-10T05:46:12.888Z,-1.00
2019-01-10T05:48:06.136Z,-0.98
2019-01-10T05:49:59.528Z,-1.00
2019-01-10T05:51:52.689Z,-0.99
2019-01-10T05:53:45.688Z,-1.03
2019-01-10T05:55:40.228Z,-1.03
2019-01-10T05:57:33.578Z,-1.02
2019-01-10T05:59:26.497Z,-1.03
2019-01-10T06:01:20.093Z,-1.05
2019-01-10T06:03:14.678Z,-1.04
2019-01-10T06:05:10.507Z,-1.08
2019-01-10T06:07:04.800Z,-1.09
2019-01-10T06:08:59.139Z,-1.12
2019-01-10T06:10:53.325Z,-1.16
2019-01-10T06:12:47.920Z,-1.19
2019-01-10T06:14:40.813Z,-1.26
2019-01-10T06:16:33.758Z,-1.30
2019-01-10T06:18:26.627Z,-1.29
2019-01-10T06:20:20.708Z,-1.32
2019-01-10T06:22:14.460Z,-1.30
2019-01-10T06:24:07.502Z,-1.34
2019-01-10T06:26:00.728Z,-1.35
2019-01-10T06:27:53.410Z,-1.37
2019-01-10T06:29:46.585Z,-1.37
2019-01-10T06:31:39.588Z,-1.39
2019-01-10T06:33:32.297Z,-1.41
2019-01-10T06:35:25.060Z,-1.41
2019-01-10T06:37:17.917Z,-1.43
2019-01-10T06:39:11.567Z,-1.42
2019-01-10T06:41:05.240Z,-1.45
2019-01-10T06:42:58.217Z,-1.44
2019-01-10T06:44:51.097Z,-1.42
2019-01-10T06:46:44.228Z,-1.42
2019-01-10T06:48:37.307Z,-1.42
2019-01-10T06:50:30.119Z,-1.41
2019-01-10T06:52:22.987Z,-1.37
2019-01-10T06:54:16.071Z,-1.41
2019-01-10T06:56:09.047Z,-1.49
2019-01-10T06:58:02.203Z,-1.51
2019-01-10T06:59:55.518Z,-1.52
2019-01-10T07:01:48.517Z,-1.56
2019-01-10T07:03:41.327Z,-1.59
2019-01-10T07:05:34.317Z,-1.62
2019-01-10T07:07:27.291Z,-1.63
2019-01-10T07:09:20.735Z,-1.63
2019-01-10T07:11:14.137Z,-1.62
2019-01-10T07:13:07.187Z,-1.65
2019-01-10T07:15:00.022Z,-1.65
2019-01-10T07:16:53.719Z,-1.66
2019-01-10T07:18:46.869Z,-1.67
2019-01-10T07:20:43.516Z,-1.66
2019-01-10T07:22:36.627Z,-1.65
2019-01-10T07:24:30.057Z,-1.68
2019-01-10T07:26:23.690Z,-1.65
2019-01-10T07:28:26.625Z,-1.64
2019-01-10T07:30:35.757Z,-1.65
2019-01-10T07:32:25.275Z,-1.60
2019-01-10T07:34:18.548Z,-1.59
2019-01-10T07:36:11.508Z,-1.55
2019-01-10T07:38:05.787Z,-1.49
2019-01-10T07:39:59.038Z,-1.52
2019-01-10T07:41:52.118Z,-1.54
2019-01-10T07:43:45.236Z,-1.55
2019-01-10T07:45:38.314Z,-1.56
2019-01-10T07:47:47.887Z,-1.56
2019-01-10T07:49:41.047Z,-1.57
2019-01-10T07:51:48.584Z,-1.59
2019-01-10T07:53:41.729Z,-1.60
2019-01-10T07:55:34.640Z,-1.60
2019-01-10T07:57:27.562Z,-1.62
2019-01-10T07:59:20.821Z,-1.63
2019-01-10T08:01:14.483Z,-1.64
2019-01-10T08:03:08.843Z,-1.62
2019-01-10T08:05:02.157Z,-1.61
2019-01-10T08:06:55.067Z,-1.59
2019-01-10T08:08:47.887Z,-1.57
2019-01-10T08:10:41.458Z,-1.57
2019-01-10T08:12:36.097Z,-1.52
2019-01-10T08:14:29.029Z,-1.49
2019-01-10T08:16:21.983Z,-1.48
2019-01-10T08:18:14.962Z,-1.50
2019-01-10T08:20:08.405Z,-1.51
2019-01-10T08:22:01.673Z,-1.55
2019-01-10T08:23:54.722Z,-1.56
2019-01-10T08:25:47.675Z,-1.57
2019-01-10T08:27:40.612Z,-1.53
2019-01-10T08:29:33.583Z,-1.48
2019-01-10T08:31:27.047Z,-1.44
2019-01-10T08:33:20.207Z,-1.44
2019-01-10T08:35:14.193Z,-1.47
2019-01-10T08:37:08.589Z,-1.47
2019-01-10T08:39:01.482Z,-1.46
2019-01-10T08:40:55.598Z,-1.48
2019-01-10T08:42:49.128Z,-1.48
2019-01-10T08:44:42.216Z,-1.46
2019-01-10T08:46:35.121Z,-1.42
2019-01-10T08:48:27.953Z,-1.43
2019-01-10T08:50:26.591Z,-1.40
2019-01-10T08:52:19.515Z,-1.39
2019-01-10T08:54:12.496Z,-1.40
2019-01-10T08:56:05.692Z,-1.38
2019-01-10T08:57:58.770Z,-1.38
2019-01-10T08:59:51.681Z,-1.40
2019-01-10T09:01:46.682Z,-1.36
2019-01-10T09:03:39.788Z,-1.29
2019-01-10T09:05:33.135Z,-1.28
2019-01-10T09:07:26.047Z,-1.28
2019-01-10T09:09:19.883Z,-1.29
2019-01-10T09:11:14.411Z,-1.29
2019-01-10T09:13:07.208Z,-1.31
2019-01-10T09:14:59.887Z,-1.37
2019-01-10T09:16:53.917Z,-1.34
2019-01-10T09:18:46.751Z,-1.35
2019-01-10T09:20:39.606Z,-1.32
2019-01-10T09:22:32.574Z,-1.31
2019-01-10T09:24:25.328Z,-1.24
2019-01-10T09:26:18.032Z,-1.25
2019-01-10T09:28:11.385Z,-1.25
2019-01-10T09:30:04.301Z,-1.31
2019-01-10T09:31:57.768Z,-1.28
2019-01-10T09:33:50.927Z,-1.17
2019-01-10T09:35:43.763Z,-1.20
2019-01-10T09:37:36.950Z,-1.18
2019-01-10T09:39:29.637Z,-1.15
2019-01-10T09:41:22.774Z,-1.09
2019-01-10T09:43:15.830Z,-1.09
2019-01-10T09:45:09.865Z,-1.07
2019-01-10T09:47:03.507Z,-1.09
2019-01-10T09:48:56.676Z,-1.11
2019-01-10T09:50:49.570Z,-1.13
2019-01-10T09:52:43.626Z,-1.13
2019-01-10T09:54:36.745Z,-1.07
2019-01-10T09:56:29.793Z,-1.02
2019-01-10T09:58:22.693Z,-1.07
2019-01-10T10:00:31.724Z,-1.03
2019-01-10T10:02:25.403Z,-1.03
2019-01-10T10:04:19.922Z,-1.08
2019-01-10T10:06:12.960Z,-1.09
2019-01-10T10:08:06.219Z,-0.99
2019-01-10T10:09:59.317Z,-1.05
2019-01-10T10:11:52.483Z,-1.03
2019-01-10T10:13:45.372Z,-1.01
2019-01-10T10:15:38.733Z,-0.92
2019-01-10T10:17:32.098Z,-0.90
2019-01-10T10:19:24.988Z,-1.03
2019-01-10T10:21:18.171Z,-0.96
2019-01-10T10:23:11.062Z,-0.94
2019-01-10T10:25:03.785Z,-1.03
2019-01-10T10:26:57.773Z,-1.05
2019-01-10T10:28:50.650Z,-1.06
2019-01-10T10:30:43.754Z,-1.09
2019-01-10T10:32:36.650Z,-1.12
2019-01-10T10:34:30.844Z,-1.09
2019-01-10T10:36:23.690Z,-1.07
2019-01-10T10:38:16.799Z,-1.05
2019-01-10T10:40:17.989Z,-1.05
2019-01-10T10:42:10.930Z,-1.07
2019-01-10T10:44:03.837Z,-1.08
2019-01-10T10:46:01.394Z,-1.02
2019-01-10T10:47:51.270Z,-0.98
2019-01-10T10:49:44.463Z,-0.97
2019-01-10T10:51:37.385Z,-0.93
2019-01-10T10:53:30.537Z,-0.90
2019-01-10T10:55:23.380Z,-0.90
2019-01-10T10:57:16.877Z,-0.96
2019-01-10T10:59:09.955Z,-1.04
2019-01-10T11:01:03.138Z,-1.01
2019-01-10T11:02:56.489Z,-1.00
2019-01-10T11:04:49.663Z,-0.98
2019-01-10T11:06:43.592Z,-1.01
2019-01-10T11:08:36.477Z,-1.03
2019-01-10T11:10:29.842Z,-1.08
2019-01-10T11:12:22.970Z,-1.03
2019-01-10T11:14:15.930Z,-1.02
2019-01-10T11:16:10.639Z,-0.94
2019-01-10T11:18:04.357Z,-0.91
2019-01-10T11:19:57.223Z,-0.89
2019-01-10T11:21:50.145Z,-0.93
2019-01-10T11:23:44.228Z,-0.97
2019-01-10T11:25:37.274Z,-0.99
2019-01-10T11:27:30.293Z,-0.95
2019-01-10T11:29:23.507Z,-0.96
2019-01-10T11:31:18.972Z,-0.91
2019-01-10T11:33:11.942Z,-0.90
2019-01-10T11:35:05.913Z,-0.86
2019-01-10T11:36:58.995Z,-0.88
2019-01-10T11:38:51.820Z,-1.00
2019-01-10T11:40:45.030Z,-1.06
2019-01-10T11:42:37.966Z,-1.12
2019-01-10T11:44:30.900Z,-1.07
2019-01-10T11:46:23.617Z,-1.07
2019-01-10T11:48:16.730Z,-1.05
2019-01-10T11:50:11.423Z,-1.19
2019-01-10T11:52:04.472Z,-1.18
2019-01-10T11:53:57.394Z,-1.26
2019-01-10T11:55:50.726Z,-1.23
2019-01-10T11:57:43.938Z,-1.18
2019-01-10T11:59:36.982Z,-1.11
2019-01-10T12:01:29.818Z,-1.11
2019-01-10T12:03:26.889Z,-1.12
2019-01-10T12:05:20.991Z,-1.18
2019-01-10T12:07:14.134Z,-1.25
2019-01-10T12:09:09.580Z,-1.26
2019-01-10T12:11:02.704Z,-1.34
2019-01-10T12:12:57.128Z,-1.37
2019-01-10T12:14:50.273Z,-1.36
2019-01-10T12:16:43.134Z,-1.36
2019-01-10T12:18:36.636Z,-1.31
2019-01-10T12:20:30.040Z,-1.29
2019-01-10T12:22:23.016Z,-1.26
2019-01-10T12:24:16.271Z,-1.21
2019-01-10T12:26:09.326Z,-1.10
2019-01-10T12:28:04.996Z,-1.07
2019-01-10T12:29:57.823Z,-1.12
2019-01-10T12:31:51.761Z,-1.13
2019-01-10T12:33:46.660Z,-1.05
2019-01-10T12:35:41.505Z,-1.05
2019-01-10T12:37:34.909Z,-1.07
2019-01-10T12:39:28.593Z,-1.12
2019-01-10T12:41:23.200Z,-1.18
2019-01-10T12:43:16.801Z,-1.21
2019-01-10T12:45:12.243Z,-1.22
2019-01-10T12:47:07.903Z,-1.23
2019-01-10T12:49:01.544Z,-1.30
2019-01-10T12:50:55.462Z,-1.27
2019-01-10T12:52:49.262Z,-1.19
2019-01-10T12:54:42.783Z,-1.16
2019-01-10T12:56:37.530Z,-1.18
2019-01-10T12:58:31.743Z,-1.24
2019-01-10T13:00:25.916Z,-1.27
2019-01-10T13:02:19.431Z,-1.32
2019-01-10T13:04:13.960Z,-1.33
2019-01-10T13:06:07.954Z,-1.40
2019-01-10T13:08:03.874Z,-1.42
2019-01-10T13:09:57.453Z,-1.43
2019-01-10T13:11:51.310Z,-1.45
2019-01-10T13:13:45.023Z,-1.47
2019-01-10T13:15:39.772Z,-1.55
2019-01-10T13:17:36.578Z,-1.61
2019-01-10T13:19:30.803Z,-1.64
2019-01-10T13:21:25.971Z,-1.68
2019-01-10T13:23:19.683Z,-1.72
2019-01-10T13:25:16.575Z,-1.68
2019-01-10T13:27:12.800Z,-1.65
2019-01-10T13:29:06.802Z,-1.65
2019-01-10T13:31:00.335Z,-1.67
2019-01-10T13:32:55.652Z,-1.69
2019-01-10T13:34:51.612Z,-1.70
2019-01-10T13:36:48.250Z,-1.72
2019-01-10T13:38:45.270Z,-1.75
2019-01-10T13:40:40.651Z,-1.80
2019-01-10T13:42:36.293Z,-1.78
2019-01-10T13:44:30.153Z,-1.79
2019-01-10T13:46:24.679Z,-1.83
2019-01-10T13:48:18.764Z,-1.87
2019-01-10T13:50:18.307Z,-1.84
2019-01-10T13:52:14.961Z,-1.87
2019-01-10T13:54:09.994Z,-1.89
2019-01-10T13:56:04.603Z,-1.87
2019-01-10T13:57:58.363Z,-1.86
2019-01-10T13:59:54.363Z,-1.83
2019-01-10T14:01:50.553Z,-1.83
2019-01-10T14:03:45.929Z,-1.81
2019-01-10T14:05:41.031Z,-1.78
2019-01-10T14:07:37.172Z,-1.76
2019-01-10T14:09:32.770Z,-1.75
2019-01-10T14:11:26.745Z,-1.80
2019-01-10T14:13:20.821Z,-1.82
2019-01-10T14:15:19.832Z,-1.81
2019-01-10T14:17:13.482Z,-1.83
2019-01-10T14:19:07.965Z,-1.82
2019-01-10T14:21:01.603Z,-1.83
2019-01-10T14:22:55.442Z,-1.85
2019-01-10T14:24:49.872Z,-1.88
2019-01-10T14:26:44.001Z,-1.87
2019-01-10T14:28:38.793Z,-1.86
2019-01-10T14:30:40.191Z,-1.88
2019-01-10T14:32:33.542Z,-1.89
2019-01-10T14:34:26.850Z,-1.87
2019-01-10T14:36:21.512Z,-1.89
2019-01-10T14:38:15.406Z,-1.91
2019-01-10T14:40:10.386Z,-1.92
2019-01-10T14:42:04.997Z,-1.93
2019-01-10T14:43:58.528Z,-1.91
2019-01-10T14:45:52.335Z,-1.90
2019-01-10T14:47:46.013Z,-1.90
2019-01-10T14:49:39.556Z,-1.91
2019-01-10T14:51:34.196Z,-1.91
2019-01-10T14:53:27.834Z,-1.96
2019-01-10T14:55:21.637Z,-1.96
2019-01-10T14:57:15.268Z,-1.95
2019-01-10T14:59:08.940Z,-1.93
2019-01-10T15:01:03.324Z,-1.96
2019-01-10T15:02:57.079Z,-1.95
2019-01-10T15:04:50.940Z,-2.00
2019-01-10T15:06:44.510Z,-2.00
2019-01-10T15:08:38.691Z,-2.02
2019-01-10T15:10:32.007Z,-2.01
2019-01-10T15:12:25.882Z,-2.01
2019-01-10T15:14:19.355Z,-2.02
2019-01-10T15:16:12.842Z,-2.02
2019-01-10T15:18:06.442Z,-2.02
2019-01-10T15:20:00.235Z,-1.99
2019-01-10T15:21:59.103Z,-1.96
2019-01-10T15:23:53.427Z,-1.96
2019-01-10T15:25:47.193Z,-2.01
2019-01-10T15:27:40.911Z,-2.02
2019-01-10T15:29:34.421Z,-2.00
2019-01-10T15:31:28.073Z,-2.03
2019-01-10T15:33:21.673Z,-2.06
2019-01-10T15:35:16.583Z,-2.09
2019-01-10T15:37:10.033Z,-2.10
2019-01-10T15:39:04.033Z,-2.09
2019-01-10T15:40:57.572Z,-2.11
2019-01-10T15:42:50.947Z,-2.13
2019-01-10T15:44:45.372Z,-2.11
2019-01-10T15:46:39.053Z,-2.12
2019-01-10T15:48:32.961Z,-2.15
2019-01-10T15:50:27.632Z,-2.18
2019-01-10T15:52:21.291Z,-2.16
2019-01-10T15:54:15.403Z,-2.15
2019-01-10T15:56:09.145Z,-2.15
2019-01-10T15:58:02.932Z,-2.12
2019-01-10T16:00:08.802Z,-2.08
2019-01-10T16:02:02.673Z,-2.07
2019-01-10T16:03:57.213Z,-2.09
2019-01-10T16:05:52.433Z,-2.09
2019-01-10T16:07:46.615Z,-2.12
2019-01-10T16:09:40.813Z,-2.13
2019-01-10T16:11:35.533Z,-2.14
2019-01-10T16:13:30.304Z,-2.13
2019-01-10T16:15:26.728Z,-2.12
2019-01-10T16:17:25.588Z,-2.11
2019-01-10T16:19:19.500Z,-2.10
2019-01-10T16:21:13.987Z,-2.09
2019-01-10T16:23:08.230Z,-2.07
2019-01-10T16:25:02.534Z,-2.07
2019-01-10T16:26:57.191Z,-2.06
2019-01-10T16:28:51.593Z,-2.08
2019-01-10T16:30:46.173Z,-2.07
2019-01-10T16:32:40.934Z,-2.08
2019-01-10T16:34:36.561Z,-2.07
2019-01-10T16:36:31.834Z,-2.03
2019-01-10T16:38:27.381Z,-2.02
2019-01-10T16:40:22.016Z,-2.01
2019-01-10T16:42:16.642Z,-2.03
2019-01-10T16:44:12.310Z,-2.08
2019-01-10T16:46:07.280Z,-2.12
2019-01-10T16:48:04.569Z,-2.14
2019-01-10T16:49:59.280Z,-2.17
2019-01-10T16:51:54.023Z,-2.20
2019-01-10T16:53:48.392Z,-2.20
2019-01-10T16:55:42.959Z,-2.23
2019-01-10T16:57:37.668Z,-2.24
2019-01-10T16:59:32.590Z,-2.29
2019-01-10T17:01:27.203Z,-2.36
2019-01-10T17:03:21.873Z,-2.40
2019-01-10T17:05:16.892Z,-2.43
2019-01-10T17:07:11.331Z,-2.45
2019-01-10T17:09:08.454Z,-2.48
2019-01-10T17:11:03.493Z,-2.53
2019-01-10T17:12:57.784Z,-2.59
2019-01-10T17:14:53.134Z,-2.67
2019-01-10T17:16:50.268Z,-2.71
2019-01-10T17:18:45.655Z,-2.74
2019-01-10T17:20:41.181Z,-2.79
2019-01-10T17:22:37.043Z,-2.83
2019-01-10T17:24:31.532Z,-2.84
2019-01-10T17:26:27.830Z,-2.86
2019-01-10T17:28:22.413Z,-2.88
2019-01-10T17:30:22.170Z,-2.90
2019-01-10T17:32:18.983Z,-2.94
2019-01-10T17:34:13.903Z,-2.99
2019-01-10T17:36:08.804Z,-3.03
2019-01-10T17:38:05.324Z,-3.07
2019-01-10T17:39:59.944Z,-3.09
2019-01-10T17:41:55.032Z,-3.10
2019-01-10T17:43:49.763Z,-3.12
2019-01-10T17:45:44.873Z,-3.13
2019-01-10T17:47:43.871Z,-3.14
2019-01-10T17:49:38.803Z,-3.15
2019-01-10T17:51:33.443Z,-3.21
2019-01-10T17:53:28.080Z,-3.21
2019-01-10T17:55:23.053Z,-3.20
2019-01-10T17:57:18.430Z,-3.21
2019-01-10T17:59:13.843Z,-3.20
2019-01-10T18:01:08.590Z,-3.22
2019-01-10T18:03:03.657Z,-3.23
2019-01-10T18:04:58.331Z,-3.27
2019-01-10T18:06:53.020Z,-3.30
2019-01-10T18:08:49.743Z,-3.31
2019-01-10T18:10:44.833Z,-3.34
2019-01-10T18:12:39.572Z,-3.38
2019-01-10T18:14:36.346Z,-3.40
2019-01-10T18:16:32.323Z,-3.43
2019-01-10T18:18:27.233Z,-3.44
2019-01-10T18:20:32.752Z,-3.46
2019-01-10T18:22:27.913Z,-3.49
2019-01-10T18:24:22.763Z,-3.50
2019-01-10T18:26:17.588Z,-3.51
2019-01-10T18:28:13.709Z,-3.51
2019-01-10T18:30:11.854Z,-3.51
2019-01-10T18:32:07.480Z,-3.55
2019-01-10T18:34:03.043Z,-3.58
2019-01-10T18:35:58.092Z,-3.61
2019-01-10T18:37:53.870Z,-3.63
2019-01-10T18:39:48.863Z,-3.62
2019-01-10T18:41:44.013Z,-3.64
2019-01-10T18:43:39.812Z,-3.63
2019-01-10T18:45:36.621Z,-3.66
2019-01-10T18:47:31.893Z,-3.67
2019-01-10T18:49:27.793Z,-3.70
2019-01-10T18:51:22.874Z,-3.72
2019-01-10T18:53:17.784Z,-3.74
2019-01-10T18:55:12.733Z,-3.75
2019-01-10T18:57:07.495Z,-3.75
2019-01-10T18:59:02.374Z,-3.76
2019-01-10T19:00:57.424Z,-3.78
2019-01-10T19:02:53.086Z,-3.79
2019-01-10T19:04:48.303Z,-3.81
2019-01-10T19:06:45.235Z,-3.82
2019-01-10T19:08:40.686Z,-3.82
2019-01-10T19:10:36.168Z,-3.79
2019-01-10T19:12:31.281Z,-3.81
2019-01-10T19:14:25.973Z,-3.83
2019-01-10T19:16:20.963Z,-3.84
2019-01-10T19:18:15.804Z,-3.85
2019-01-10T19:20:18.270Z,-3.88
2019-01-10T19:22:14.521Z,-3.92
2019-01-10T19:24:10.313Z,-3.94
2019-01-10T19:26:05.241Z,-3.93
2019-01-10T19:28:00.105Z,-3.94
2019-01-10T19:30:00.046Z,-3.98
2019-01-10T19:35:09.532Z,-4.07
2019-01-10T19:37:05.544Z,-4.14
2019-01-10T19:39:00.950Z,-4.18
2019-01-10T19:40:56.222Z,-4.19
2019-01-10T19:42:51.106Z,-4.19
2019-01-10T19:44:46.223Z,-4.21
2019-01-10T19:46:42.093Z,-4.24
2019-01-10T19:48:37.504Z,-4.27
2019-01-10T19:50:34.191Z,-4.28
2019-01-10T19:52:30.114Z,-4.32
2019-01-10T19:54:25.289Z,-4.33
2019-01-10T19:56:20.304Z,-4.36
2019-01-10T19:58:27.848Z,-4.39
2019-01-10T20:00:47.291Z,-4.41
2019-01-10T20:02:42.504Z,-4.43
2019-01-10T20:04:38.937Z,-4.46
2019-01-10T20:06:42.825Z,-4.47
2019-01-10T20:08:37.700Z,-4.48
2019-01-10T20:10:35.410Z,-4.52
2019-01-10T20:12:30.823Z,-4.55
2019-01-10T20:14:26.338Z,-4.56
2019-01-10T20:16:22.751Z,-4.60
2019-01-10T20:18:17.785Z,-4.62
2019-01-10T20:20:23.543Z,-4.63
2019-01-10T20:22:18.572Z,-4.66
2019-01-10T20:24:19.623Z,-4.67
2019-01-10T20:26:15.704Z,-4.70
2019-01-10T20:28:10.952Z,-4.69
2019-01-10T20:30:06.364Z,-4.72
2019-01-10T20:32:01.379Z,-4.76
2019-01-10T20:33:56.561Z,-4.75
2019-01-10T20:35:51.353Z,-4.77
2019-01-10T20:37:46.376Z,-4.79
2019-01-10T20:39:42.890Z,-4.83
2019-01-10T20:41:37.920Z,-4.82
2019-01-10T20:43:35.516Z,-4.84
2019-01-10T20:45:47.161Z,-4.84
2019-01-10T20:47:43.903Z,-4.88
2019-01-10T20:49:39.214Z,-4.90
2019-01-10T20:51:37.458Z,-4.88
2019-01-10T20:53:32.303Z,-4.89
2019-01-10T20:55:28.980Z,-4.92
2019-01-10T20:57:24.180Z,-4.94
2019-01-10T20:59:19.014Z,-4.91
2019-01-10T21:01:14.247Z,-4.91
2019-01-10T21:03:10.140Z,-4.93
2019-01-10T21:05:04.905Z,-4.97
2019-01-10T21:07:02.387Z,-4.98
2019-01-10T21:09:02.133Z,-4.99
2019-01-10T21:10:59.674Z,-5.01
2019-01-10T21:12:55.183Z,-5.05
2019-01-10T21:14:49.876Z,-5.03
2019-01-10T21:16:44.960Z,-5.03
2019-01-10T21:18:39.660Z,-5.05
2019-01-10T21:20:37.742Z,-5.09
2019-01-10T21:22:32.823Z,-5.12
2019-01-10T21:24:27.841Z,-5.12
2019-01-10T21:26:22.483Z,-5.15
2019-01-10T21:28:17.593Z,-5.17
2019-01-10T21:30:15.835Z,-5.22
2019-01-10T21:32:10.800Z,-5.23
2019-01-10T21:34:05.940Z,-5.22
2019-01-10T21:36:01.194Z,-5.21
2019-01-10T21:37:56.142Z,-5.20
2019-01-10T21:39:51.613Z,-5.19
2019-01-10T21:41:48.152Z,-5.19
2019-01-10T21:43:43.053Z,-5.22
2019-01-10T21:45:37.923Z,-5.24
2019-01-10T21:47:32.551Z,-5.27
2019-01-10T21:49:27.333Z,-5.31
2019-01-10T21:51:22.000Z,-5.34
2019-01-10T21:53:16.970Z,-5.33
2019-01-10T21:55:11.553Z,-5.35
2019-01-10T21:57:05.181Z,-5.36
2019-01-10T21:58:59.683Z,-5.38
2019-01-10T22:00:53.993Z,-5.41
2019-01-10T22:02:47.543Z,-5.44
2019-01-10T22:04:41.192Z,-5.44
2019-01-10T22:06:35.005Z,-5.44
2019-01-10T22:08:29.324Z,-5.44
2019-01-10T22:10:23.158Z,-5.48
2019-01-10T22:12:16.702Z,-5.49
2019-01-10T22:14:11.234Z,-5.52
2019-01-10T22:16:06.073Z,-5.54
2019-01-10T22:17:59.567Z,-5.56
2019-01-10T22:19:53.923Z,-5.60
2019-01-10T22:21:47.141Z,-5.62
2019-01-10T22:23:40.663Z,-5.65
2019-01-10T22:25:33.824Z,-5.67
2019-01-10T22:27:27.083Z,-5.69
2019-01-10T22:29:20.253Z,-5.68
2019-01-10T22:31:14.433Z,-5.71
2019-01-10T22:33:07.343Z,-5.71
2019-01-10T22:35:00.732Z,-5.72
2019-01-10T22:36:53.964Z,-5.75
2019-01-10T22:38:46.775Z,-5.77
2019-01-10T22:40:41.621Z,-5.78
2019-01-10T22:42:34.628Z,-5.78
2019-01-10T22:44:27.969Z,-5.79
2019-01-10T22:46:20.758Z,-5.80
2019-01-10T22:48:14.342Z,-5.82
2019-01-10T22:50:08.332Z,-5.85
2019-01-10T22:52:01.982Z,-5.88
2019-01-10T22:53:55.153Z,-5.88
2019-01-10T22:55:48.113Z,-5.88
2019-01-10T22:57:42.058Z,-5.88
2019-01-10T22:59:35.078Z,-5.91
2019-01-10T23:01:42.007Z,-5.93
2019-01-10T23:03:37.078Z,-5.96
2019-01-10T23:05:30.276Z,-5.98
2019-01-10T23:07:24.769Z,-6.00
2019-01-10T23:09:17.777Z,-5.99
2019-01-10T23:11:24.424Z,-5.98
2019-01-10T23:13:18.975Z,-5.98
2019-01-10T23:15:33.446Z,-6.01
2019-01-10T23:17:28.126Z,-6.01
2019-01-10T23:19:21.456Z,-6.01
2019-01-10T23:21:15.300Z,-5.99
2019-01-10T23:23:11.036Z,-6.01
2019-01-10T23:25:04.216Z,-6.01
2019-01-10T23:27:01.771Z,-6.00
2019-01-10T23:28:54.658Z,-6.01
2019-01-10T23:30:59.616Z,-6.02
2019-01-10T23:32:52.887Z,-6.05
2019-01-10T23:34:52.996Z,-6.04
2019-01-10T23:36:52.079Z,-6.06
2019-01-10T23:38:46.076Z,-6.01
2019-01-10T23:40:39.245Z,-6.01
2019-01-10T23:42:32.175Z,-5.99
2019-01-10T23:44:25.859Z,-5.94
2019-01-10T23:46:18.622Z,-5.94
2019-01-10T23:48:11.347Z,-5.96
2019-01-10T23:50:05.802Z,-6.01
2019-01-10T23:51:58.887Z,-6.03
2019-01-10T23:53:51.664Z,-6.01
2019-01-10T23:55:44.808Z,-6.03
2019-01-10T23:57:39.062Z,-6.02
2019-01-10T23:59:32.732Z,-6.04
